Time;durP1;ratioP1;P1;durP2;ratioP2;P2;SDS_P1;SDS_P2;PMS_P1;PMS_P2;Temp;Humidity;BMP_temperature;BMP_pressure;BME280_temperature;BME280_humidity;BME280_pressure;Samples;Min_cycle;Max_cycle;Signal;HPM_P1;HPM_P2
2021/07/04 00:00:42;;;;;;;9.35;5.40;;;;;;;18.26;66.69;99423.22;5051681;28;20076;-1
2021/07/04 00:03:12;;;;;;;7.13;5.03;;;;;;;18.29;66.47;99414.28;5053160;28;20435;-1
2021/07/04 00:05:42;;;;;;;6.90;4.90;;;;;;;18.33;66.75;99432.63;5052934;28;20439;0
2021/07/04 00:08:14;;;;;;;7.85;5.30;;;;;;;18.07;66.36;99382.66;5034878;28;20124;0
2021/07/04 00:10:48;;;;;;;7.70;4.65;;;;;;;18.08;66.40;99385.25;5052963;28;20047;0
2021/07/04 00:13:14;;;;;;;10.73;5.05;;;;;;;18.19;66.62;99398.84;5053037;28;20120;0
2021/07/04 00:15:42;;;;;;;7.20;4.63;;;;;;;18.30;66.57;99418.66;5051369;28;20097;0
2021/07/04 00:18:11;;;;;;;9.13;5.40;;;;;;;18.37;66.60;99428.06;5052584;28;20064;0
2021/07/04 00:20:39;;;;;;;6.60;4.10;;;;;;;18.21;66.52;99390.81;5052940;28;20044;-1
2021/07/04 00:23:06;;;;;;;9.02;5.75;;;;;;;18.40;66.20;99412.03;5051473;28;20118;0
2021/07/04 00:25:34;;;;;;;8.02;5.13;;;;;;;18.21;66.14;99387.34;5052842;28;20040;0
2021/07/04 00:28:00;;;;;;;9.05;4.95;;;;;;;18.26;66.13;99393.28;5052842;28;20052;0
2021/07/04 00:30:26;;;;;;;6.18;4.60;;;;;;;18.45;66.22;99417.13;5052542;28;20064;0
2021/07/04 00:32:53;;;;;;;7.32;5.10;;;;;;;18.44;66.67;99429.47;5052530;28;20048;0
2021/07/04 00:35:21;;;;;;;9.05;4.80;;;;;;;18.47;66.26;99447.00;5052515;28;20064;0
2021/07/04 00:37:48;;;;;;;8.60;5.15;;;;;;;18.59;66.21;99424.41;5052790;28;20041;0
2021/07/04 00:40:14;;;;;;;6.93;5.28;;;;;;;18.52;66.13;99437.94;5052638;28;20040;0
2021/07/04 00:42:41;;;;;;;8.55;5.03;;;;;;;18.48;66.07;99417.81;5052595;28;20475;0
2021/07/04 00:45:20;;;;;;;8.65;5.30;;;;;;;18.51;66.11;99440.63;5052489;28;20036;1
2021/07/04 00:47:49;;;;;;;8.68;4.90;;;;;;;18.38;65.50;99402.44;5052662;28;20254;0
2021/07/04 00:50:20;;;;;;;5.85;4.75;;;;;;;18.54;66.02;99440.50;5051522;28;20492;-1
2021/07/04 00:52:46;;;;;;;7.75;4.97;;;;;;;18.50;66.13;99444.22;5034322;28;20553;-1
2021/07/04 00:55:16;;;;;;;7.57;5.20;;;;;;;18.40;66.00;99433.19;5051411;28;20500;0
2021/07/04 00:57:44;;;;;;;;;;;;;;;18.50;66.03;99433.63;5053060;28;20121;0
2021/07/04 01:00:21;;;;;;;7.15;4.55;;;;;;;18.63;65.20;99441.84;5051239;28;19943;0
2021/07/04 01:02:48;;;;;;;6.20;4.10;;;;;;;18.53;65.32;99436.13;5050573;28;20040;0
2021/07/04 01:05:25;;;;;;;7.32;4.47;;;;;;;18.27;65.08;99400.28;5051302;28;20103;0
2021/07/04 01:07:53;;;;;;;5.45;4.32;;;;;;;18.49;64.61;99426.63;5052467;28;20459;-1
2021/07/04 01:10:22;;;;;;;7.57;4.15;;;;;;;18.47;65.00;99428.47;5052412;28;20477;-1
2021/07/04 01:13:00;;;;;;;10.30;5.00;;;;;;;18.50;65.06;99444.22;5052402;28;20045;-1
2021/07/04 01:15:29;;;;;;;8.13;4.20;;;;;;;18.45;65.36;99444.44;5051267;28;20057;-1
2021/07/04 01:18:03;;;;;;;6.90;4.57;;;;;;;18.30;65.15;99390.44;5054298;28;20110;-14
2021/07/04 01:20:31;;;;;;;9.23;4.75;;;;;;;18.31;65.18;99410.63;5056077;28;20500;-1
2021/07/04 01:23:02;;;;;;;6.43;4.55;;;;;;;18.46;64.99;99438.22;5055826;28;20474;-1
2021/07/04 01:25:32;;;;;;;5.18;4.22;;;;;;;18.52;64.55;99437.06;5056335;28;20121;-1
2021/07/04 01:28:00;;;;;;;5.80;4.00;;;;;;;18.60;64.00;99421.66;5055753;28;20040;-1
2021/07/04 01:30:28;;;;;;;6.35;4.00;;;;;;;18.62;64.65;99441.00;5054505;28;20075;-1
2021/07/04 01:32:56;;;;;;;6.78;4.40;;;;;;;18.48;64.97;99401.06;5054474;28;20051;-1
2021/07/04 01:35:22;;;;;;;6.60;4.70;;;;;;;18.76;63.92;99456.25;5037893;28;20048;-2
2021/07/04 01:37:48;;;;;;;8.63;4.43;;;;;;;18.60;64.43;99440.19;5055571;28;20041;-2
2021/07/04 01:40:16;;;;;;;7.10;4.40;;;;;;;18.58;65.10;99449.16;5055461;28;20049;0
2021/07/04 01:42:45;;;;;;;7.15;4.25;;;;;;;18.58;65.06;99450.03;5054220;28;20044;-1
2021/07/04 01:45:16;;;;;;;6.90;4.47;;;;;;;18.62;65.58;99453.38;5055783;28;20076;-1
2021/07/04 01:47:45;;;;;;;7.10;4.40;;;;;;;18.58;64.59;99431.50;5054176;28;20036;1
2021/07/04 01:50:24;;;;;;;6.55;4.25;;;;;;;18.52;64.99;99445.00;5055407;28;20166;0
2021/07/04 01:52:51;;;;;;;6.30;4.55;;;;;;;18.34;65.52;99425.53;5037466;28;20497;0
2021/07/04 01:55:17;;;;;;;5.07;4.10;;;;;;;18.40;66.00;99442.94;5055287;28;20128;-1
2021/07/04 01:57:46;;;;;;;6.88;4.45;;;;;;;18.48;65.32;99446.91;5055469;28;20052;-1
2021/07/04 02:00:23;;;;;;;5.60;4.28;;;;;;;18.45;65.31;99433.84;5055665;28;20523;0
2021/07/04 02:03:06;;;;;;;7.57;4.63;;;;;;;18.46;65.54;99453.22;5055166;28;20045;-2
2021/07/04 02:05:37;;;;;;;9.05;4.68;;;;;;;18.44;65.78;99441.84;5055371;28;20055;0
2021/07/04 02:08:05;;;;;;;6.70;4.78;;;;;;;18.37;65.97;99456.28;5053822;28;20055;0
2021/07/04 02:10:37;;;;;;;5.13;4.22;;;;;;;18.27;66.31;99451.41;5055177;28;20500;-1
2021/07/04 02:13:05;;;;;;;5.88;4.15;;;;;;;18.27;66.04;99429.38;5054034;28;20444;-1
2021/07/04 02:15:35;;;;;;;7.10;4.13;;;;;;;18.56;65.81;99459.81;5053761;28;20072;-1
2021/07/04 02:18:18;;;;;;;5.88;3.80;;;;;;;18.53;65.83;99462.59;5054653;28;20060;-1
2021/07/04 02:21:03;;;;;;;12.35;4.30;;;;;;;18.55;65.11;99434.28;5055319;28;20127;-1
2021/07/04 02:23:52;;;;;;;6.03;3.65;;;;;;;18.44;65.18;99412.75;5054507;28;20049;-1
2021/07/04 02:26:29;;;;;;;6.85;4.43;;;;;;;18.62;65.57;99466.63;5054929;28;20044;0
2021/07/04 02:28:59;;;;;;;5.53;4.28;;;;;;;18.35;65.73;99433.41;5054358;28;20037;0
2021/07/04 02:31:33;;;;;;;8.57;4.40;;;;;;;18.37;65.72;99433.34;5053665;28;20045;-1
2021/07/04 02:34:01;;;;;;;6.70;3.63;;;;;;;18.39;65.74;99425.31;5053531;28;20041;-1
2021/07/04 02:36:33;;;;;;;8.13;4.35;;;;;;;18.52;65.86;99453.81;5054716;28;20555;0
2021/07/04 02:39:09;;;;;;;5.65;4.13;;;;;;;18.48;66.24;99467.25;5054255;28;20037;0
2021/07/04 02:41:36;;;;;;;7.35;4.18;;;;;;;18.23;66.55;99436.59;5054338;28;20067;0
2021/07/04 02:44:02;;;;;;;7.60;3.97;;;;;;;18.21;66.50;99442.88;5054335;28;20102;0
2021/07/04 02:46:31;;;;;;;7.55;3.97;;;;;;;18.10;66.85;99446.88;5054571;28;20036;0
2021/07/04 02:48:58;;;;;;;7.13;3.70;;;;;;;18.24;66.80;99438.31;5054537;28;20124;0
2021/07/04 02:51:24;;;;;;;5.20;3.47;;;;;;;18.43;66.06;99440.13;5053112;28;20090;0
2021/07/04 02:53:51;;;;;;;6.28;3.67;;;;;;;18.29;66.50;99446.91;5054149;28;20037;1
2021/07/04 02:56:22;;;;;;;5.72;3.55;;;;;;;18.23;66.95;99449.81;5054415;28;20130;0
2021/07/04 02:58:48;;;;;;;5.40;3.75;;;;;;;18.22;67.13;99458.69;5054522;28;20040;0
2021/07/04 03:01:15;;;;;;;7.40;4.10;;;;;;;18.28;66.58;99447.84;5036524;28;20581;0
2021/07/04 03:03:42;;;;;;;6.65;3.47;;;;;;;18.34;66.93;99447.56;5054333;28;20127;0
2021/07/04 03:06:08;;;;;;;5.95;3.70;;;;;;;18.45;67.02;99497.34;5054122;28;20448;0
2021/07/04 03:08:36;;;;;;;7.40;3.85;;;;;;;18.36;67.10;99479.25;5052681;28;20044;-1
2021/07/04 03:11:03;;;;;;;6.90;4.18;;;;;;;18.12;67.19;99444.16;5053999;28;20036;-1
2021/07/04 03:13:34;;;;;;;8.02;4.13;;;;;;;18.23;67.23;99441.88;5053961;28;20045;-1
2021/07/04 03:16:04;;;;;;;6.95;4.45;;;;;;;18.48;67.41;99494.56;5053157;28;20067;-1
2021/07/04 03:18:32;;;;;;;6.47;3.78;;;;;;;18.26;68.05;99493.81;5053789;28;20492;-1
2021/07/04 03:20:59;;;;;;;8.00;3.78;;;;;;;18.12;67.82;99458.25;5053558;28;20083;-1
2021/07/04 03:23:26;;;;;;;7.47;4.35;;;;;;;18.31;67.94;99499.75;5053603;28;20037;-1
2021/07/04 03:25:56;;;;;;;5.13;3.90;;;;;;;18.09;68.12;99460.16;5052525;28;20047;-1
2021/07/04 03:28:27;;;;;;;7.20;3.90;;;;;;;18.12;68.07;99463.53;5052588;28;20083;-1
2021/07/04 03:30:58;;;;;;;5.80;3.92;;;;;;;18.25;67.98;99494.72;5052859;28;20048;-1
2021/07/04 03:33:24;;;;;;;5.50;3.65;;;;;;;18.05;68.15;99455.94;5052716;28;20464;-1
2021/07/04 03:35:50;;;;;;;5.00;3.60;;;;;;;18.24;68.31;99504.47;5052716;28;20127;-1
2021/07/04 03:38:17;;;;;;;4.63;3.15;;;;;;;18.28;67.93;99490.16;5053319;28;20059;-1
2021/07/04 03:40:48;;;;;;;6.07;3.72;;;;;;;18.44;67.92;99511.50;5052434;28;20045;-1
2021/07/04 03:43:24;;;;;;;6.22;3.50;;;;;;;18.38;67.55;99492.41;5052200;28;20037;-1
2021/07/04 03:45:52;;;;;;;5.20;3.45;;;;;;;18.37;67.87;99504.78;5052204;28;20128;-1
2021/07/04 03:48:18;;;;;;;4.95;3.65;;;;;;;18.39;68.02;99515.31;5052125;28;20087;-1
2021/07/04 03:50:53;;;;;;;9.40;4.10;;;;;;;18.40;68.01;99517.03;5051894;28;20115;-1
2021/07/04 03:53:20;;;;;;;5.03;3.70;;;;;;;17.99;68.63;99480.84;5051790;28;20052;-1
2021/07/04 03:55:48;;;;;;;6.28;3.92;;;;;;;18.09;68.18;99487.47;5035773;28;20048;0
2021/07/04 03:58:16;;;;;;;7.68;4.43;;;;;;;17.94;68.56;99477.53;5053567;28;20068;-1
2021/07/04 04:00:42;;;;;;;5.38;3.50;;;;;;;18.01;68.39;99471.94;5051660;28;20124;1
2021/07/04 04:03:14;;;;;;;5.57;4.03;;;;;;;18.22;67.97;99489.59;5035027;28;20047;0
2021/07/04 04:05:48;;;;;;;8.55;4.05;;;;;;;18.38;68.04;99525.00;5051968;28;20045;-1
2021/07/04 04:08:15;;;;;;;4.63;3.38;;;;;;;18.26;68.47;99530.84;5053136;28;20041;-1
2021/07/04 04:10:44;;;;;;;5.47;3.50;;;;;;;18.11;68.46;99488.28;5052704;28;20043;-1
2021/07/04 04:13:15;;;;;;;4.95;3.40;;;;;;;18.13;68.06;99493.47;5053258;28;20045;0
2021/07/04 04:15:42;;;;;;;5.38;3.80;;;;;;;18.16;68.23;99498.63;5053022;28;20032;0
2021/07/04 04:18:10;;;;;;;6.47;3.70;;;;;;;18.14;67.97;99495.22;5052811;28;20060;0
2021/07/04 04:20:38;;;;;;;4.97;3.60;;;;;;;18.24;68.05;99503.59;5052476;28;20063;0
2021/07/04 04:23:08;;;;;;;5.93;3.70;;;;;;;18.40;67.64;99517.03;5052879;28;20055;0
2021/07/04 04:25:35;;;;;;;5.03;3.20;;;;;;;18.43;67.73;99527.47;5052624;28;20512;-1
2021/07/04 04:28:04;;;;;;;6.50;4.07;;;;;;;18.27;67.79;99516.69;5052570;28;20052;-1
2021/07/04 04:30:32;;;;;;;6.18;3.75;;;;;;;18.62;67.35;99560.13;5052666;28;20404;0
2021/07/04 04:33:01;;;;;;;6.13;3.42;;;;;;;18.50;67.65;99532.41;5051831;28;20560;0
2021/07/04 04:35:28;;;;;;;7.60;3.53;;;;;;;18.64;67.32;99558.28;5051220;28;20047;0
2021/07/04 04:37:54;;;;;;;6.20;4.03;;;;;;;18.48;68.22;99559.88;5052702;28;20047;0
2021/07/04 04:40:20;;;;;;;4.45;3.50;;;;;;;18.46;68.33;99561.72;5052320;28;20508;0
2021/07/04 04:42:47;;;;;;;7.43;4.13;;;;;;;18.40;68.36;99557.56;5034537;28;20080;0
2021/07/04 04:45:14;;;;;;;5.28;3.50;;;;;;;18.33;67.96;99521.75;5051527;28;20037;0
2021/07/04 04:47:40;;;;;;;8.00;4.30;;;;;;;18.31;67.79;99528.88;5052640;28;20045;0
2021/07/04 04:50:07;;;;;;;5.53;3.58;;;;;;;18.72;67.60;99570.31;5052370;28;20040;0
2021/07/04 04:52:33;;;;;;;5.35;3.28;;;;;;;18.59;67.99;99562.06;5056017;28;20044;0
2021/07/04 04:54:59;;;;;;;6.55;3.42;;;;;;;18.23;68.40;99529.19;5056380;28;20041;1
2021/07/04 04:57:26;;;;;;;6.57;3.45;;;;;;;18.37;67.94;99533.03;5056603;28;20069;0
2021/07/04 04:59:52;;;;;;;4.68;3.40;;;;;;;18.42;67.88;99552.22;5056541;28;20065;-1
2021/07/04 05:02:18;;;;;;;4.82;3.65;;;;;;;18.10;68.36;99523.56;5056421;28;20048;0
2021/07/04 05:04:44;;;;;;;8.02;3.92;;;;;;;17.95;69.15;99521.59;5057223;28;20037;-1
2021/07/04 05:07:10;;;;;;;10.15;4.30;;;;;;;18.33;68.88;99569.38;5056462;28;20554;0
2021/07/04 05:09:36;;;;;;;5.82;3.88;;;;;;;18.25;68.57;99530.00;5055491;28;20033;-1
2021/07/04 05:12:02;;;;;;;8.05;4.10;;;;;;;18.36;68.50;99550.69;5056222;28;20388;0
2021/07/04 05:14:29;;;;;;;6.47;3.75;;;;;;;18.27;68.30;99536.06;5056045;28;20649;-1
2021/07/04 05:16:56;;;;;;;6.72;3.83;;;;;;;18.52;68.42;99574.69;5055993;28;20090;-1
2021/07/04 05:19:22;;;;;;;8.48;4.15;;;;;;;18.57;68.33;99580.66;5056446;28;20136;-1
2021/07/04 05:21:48;;;;;;;4.93;3.53;;;;;;;18.35;68.19;99541.91;5054695;28;20137;-1
2021/07/04 05:24:14;;;;;;;6.38;4.13;;;;;;;18.52;68.11;99574.69;5056203;28;20500;0
2021/07/04 05:26:40;;;;;;;6.50;3.85;;;;;;;18.51;68.53;99584.44;5055785;28;20116;-1
2021/07/04 05:29:07;;;;;;;10.07;3.38;;;;;;;18.36;68.48;99558.63;5055775;28;20507;-1
2021/07/04 05:31:33;;;;;;;5.35;3.63;;;;;;;18.58;67.94;99565.66;5055691;28;20458;-1
2021/07/04 05:33:59;;;;;;;6.03;3.40;;;;;;;18.70;67.97;99585.41;5056446;28;20047;-1
2021/07/04 05:36:26;;;;;;;5.13;3.20;;;;;;;18.31;68.18;99539.44;5055618;28;20033;-1
2021/07/04 05:38:52;;;;;;;5.97;3.60;;;;;;;18.47;68.35;99572.28;5055523;28;20053;-1
2021/07/04 05:41:20;;;;;;;5.75;3.60;;;;;;;18.35;68.25;99552.50;5055752;28;20147;-1
2021/07/04 05:43:48;;;;;;;4.93;3.22;;;;;;;18.38;68.30;99551.47;5055627;28;20067;-1
2021/07/04 05:46:14;;;;;;;4.72;3.45;;;;;;;18.59;68.52;99573.50;5055601;28;20037;-1
2021/07/04 05:48:43;;;;;;;4.40;3.15;;;;;;;18.57;67.59;99529.50;5055527;28;20040;-1
2021/07/04 05:51:10;;;;;;;5.63;4.00;;;;;;;18.92;67.17;99572.94;5054154;28;20033;-1
2021/07/04 05:53:36;;;;;;;5.35;3.80;;;;;;;18.66;67.09;99529.94;5055603;28;20400;-1
2021/07/04 05:56:02;;;;;;;6.70;4.03;;;;;;;18.61;67.34;99526.63;5055536;28;20135;-1
2021/07/04 05:58:28;;;;;;;4.57;3.17;;;;;;;18.79;66.69;99529.41;5055222;28;20040;-1
2021/07/04 06:00:54;;;;;;;7.65;3.20;;;;;;;19.05;66.81;99583.84;5055150;28;20045;-1
2021/07/04 06:03:20;;;;;;;5.53;3.70;;;;;;;19.23;66.69;99603.34;5054626;28;20033;0
2021/07/04 06:05:46;;;;;;;6.18;3.28;;;;;;;18.93;66.13;99542.03;5055150;28;20052;0
2021/07/04 06:08:13;;;;;;;5.75;3.55;;;;;;;19.38;65.77;99600.91;5055286;28;20497;0
2021/07/04 06:10:41;;;;;;;5.63;3.15;;;;;;;19.43;65.87;99605.03;5055221;28;20510;-1
2021/07/04 06:13:07;;;;;;;5.05;3.58;;;;;;;18.94;65.89;99555.22;5055199;28;20045;-1
2021/07/04 06:15:33;;;;;;;5.05;3.58;;;;;;;19.17;66.15;99593.03;5055217;28;20591;-1
2021/07/04 06:17:59;;;;;;;4.25;3.03;;;;;;;18.95;65.89;99551.63;5053888;28;20147;-1
2021/07/04 06:20:25;;;;;;;4.45;2.90;;;;;;;19.16;65.22;99556.84;5054754;28;20131;-1
2021/07/04 06:22:54;;;;;;;7.00;3.03;;;;;;;19.64;64.05;99607.63;5054960;28;20500;0
2021/07/04 06:25:20;;;;;;;3.30;2.83;;;;;;;19.52;63.86;99571.94;5054725;28;20072;-1
2021/07/04 06:27:46;;;;;;;6.53;3.05;;;;;;;19.35;63.85;99548.91;5055011;28;20044;-1
2021/07/04 06:30:14;;;;;;;5.53;2.88;;;;;;;19.96;62.99;99584.84;5054872;28;20500;-1
2021/07/04 06:32:41;;;;;;;3.20;2.60;;;;;;;19.89;62.54;99606.44;5053838;28;20446;-1
2021/07/04 06:35:10;;;;;;;4.40;2.50;;;;;;;19.73;62.37;99588.59;5054762;28;20087;-1
2021/07/04 06:37:37;;;;;;;3.80;2.53;;;;;;;19.60;62.14;99580.38;5053175;28;20195;-1
2021/07/04 06:40:05;;;;;;;4.07;2.67;;;;;;;19.26;63.05;99559.94;5054357;28;20041;-1
2021/07/04 06:42:31;;;;;;;7.78;2.63;;;;;;;19.36;63.71;99592.16;5054418;28;20063;-1
2021/07/04 06:44:57;;;;;;;3.47;2.50;;;;;;;19.47;63.04;99563.34;5054342;28;20500;-1
2021/07/04 06:47:23;;;;;;;4.68;2.50;;;;;;;19.58;63.28;99599.94;5054629;28;20512;-1
2021/07/04 06:49:49;;;;;;;6.03;2.35;;;;;;;19.57;63.54;99617.66;5054224;28;20060;-1
2021/07/04 06:52:15;;;;;;;3.13;2.20;;;;;;;19.26;64.08;99589.94;5054172;28;20040;-1
2021/07/04 06:54:41;;;;;;;4.97;2.60;;;;;;;19.63;63.39;99613.84;5054435;28;20520;-1
2021/07/04 06:59:51;;;;;;;3.65;2.38;;;;;;;19.90;62.96;99605.53;5054853;28;20171;-1
2021/07/04 07:02:18;;;;;;;4.25;2.45;;;;;;;19.78;63.49;99602.50;5054007;28;20059;-1
2021/07/04 07:04:43;;;;;;;4.25;2.58;;;;;;;20.11;62.17;99616.88;5054686;28;20045;-1
2021/07/04 07:07:09;;;;;;;6.05;2.28;;;;;;;19.94;62.37;99585.88;5054252;28;20037;-1
2021/07/04 07:09:35;;;;;;;4.57;2.90;;;;;;;20.14;62.27;99600.78;5053898;28;20404;-1
2021/07/04 07:12:02;;;;;;;3.53;2.40;;;;;;;20.42;61.82;99604.69;5054103;28;20045;-1
2021/07/04 07:14:28;;;;;;;3.55;2.45;;;;;;;20.13;61.45;99559.28;5053789;28;20071;-1
2021/07/04 07:16:54;;;;;;;3.67;2.40;;;;;;;20.24;60.93;99559.56;5053797;28;20049;-1
2021/07/04 07:19:20;;;;;;;4.00;2.30;;;;;;;19.98;61.67;99563.56;5053614;28;20049;-1
2021/07/04 07:21:46;;;;;;;2.97;2.22;;;;;;;20.31;61.56;99599.91;5054057;28;20040;-1
2021/07/04 07:24:12;;;;;;;4.88;2.30;;;;;;;20.30;61.09;99595.56;5053656;28;20040;-1
2021/07/04 07:26:45;;;;;;;5.40;2.65;;;;;;;20.48;60.64;99593.75;5053478;28;20182;-1
2021/07/04 07:29:11;;;;;;;5.40;2.60;;;;;;;20.74;60.07;99595.09;5052315;28;20506;0
2021/07/04 07:31:37;;;;;;;3.67;2.33;;;;;;;21.15;58.98;99599.13;5053579;28;20052;0
2021/07/04 07:34:04;;;;;;;3.50;2.53;;;;;;;21.08;58.27;99563.16;5052389;28;20090;0
2021/07/04 07:36:32;;;;;;;4.47;2.38;;;;;;;21.29;59.01;99591.25;5053379;28;20044;0
2021/07/04 07:38:58;;;;;;;6.20;2.30;;;;;;;21.09;58.08;99563.13;5053510;28;20048;0
2021/07/04 07:41:27;;;;;;;3.50;2.33;;;;;;;20.94;58.38;99572.75;5052226;28;20114;0
2021/07/04 07:43:53;;;;;;;5.03;2.25;;;;;;;21.02;58.91;99598.06;5053709;28;20052;-5
2021/07/04 07:46:19;;;;;;;3.00;2.10;;;;;;;20.64;60.01;99562.81;5053644;28;20076;-5
2021/07/04 07:48:46;;;;;;;3.65;2.00;;;;;;;20.83;58.93;99599.03;5053190;28;20129;0
2021/07/04 07:51:36;;;;;;;5.05;2.53;;;;;;;20.92;58.61;99584.41;5053191;28;20045;0
2021/07/04 07:54:04;;;;;;;10.25;2.83;;;;;;;20.87;58.33;99571.38;5051834;28;20119;0
2021/07/04 07:56:31;;;;;;;5.85;2.67;;;;;;;21.04;58.52;99577.56;5052111;28;20072;0
2021/07/04 07:58:57;;;;;;;3.55;2.67;;;;;;;21.28;57.97;99554.13;5052921;28;20037;0
2021/07/04 08:01:23;;;;;;;5.10;2.65;;;;;;;21.85;56.86;99563.34;5053253;28;20041;0
2021/07/04 08:03:55;;;;;;;3.40;2.55;;;;;;;21.66;56.29;99584.84;5052686;28;20527;0
2021/07/04 08:06:21;;;;;;;4.13;2.28;;;;;;;21.36;57.19;99545.72;5053040;28;20469;0
2021/07/04 08:08:47;;;;;;;5.88;2.50;;;;;;;21.78;57.14;99578.81;5053079;28;20515;0
2021/07/04 08:11:18;;;;;;;3.95;2.10;;;;;;;21.85;55.75;99534.94;5052960;28;20064;-1
2021/07/04 08:13:44;;;;;;;3.40;2.00;;;;;;;22.09;56.02;99577.03;5052696;28;20545;0
2021/07/04 08:16:10;;;;;;;5.68;2.28;;;;;;;22.29;55.79;99582.03;5052672;28;20083;-1
2021/07/04 08:18:36;;;;;;;4.80;2.25;;;;;;;21.98;54.10;99524.44;5052483;28;20053;0
2021/07/04 08:21:03;;;;;;;3.17;2.28;;;;;;;21.89;54.82;99531.16;5051748;28;20499;0
2021/07/04 08:23:29;;;;;;;4.22;2.30;;;;;;;21.88;55.13;99569.34;5052764;28;20063;0
2021/07/04 08:25:54;;;;;;;6.03;2.50;;;;;;;22.19;54.36;99580.88;5052542;28;20476;0
2021/07/04 08:28:20;;;;;;;2.90;1.80;;;;;;;21.90;53.72;99547.97;5050037;28;20043;-1
2021/07/04 08:30:47;;;;;;;5.00;2.10;;;;;;;22.33;54.99;99587.16;5031980;28;20029;0
2021/07/04 08:33:14;;;;;;;4.25;1.90;;;;;;;22.39;53.51;99579.69;5032546;28;20037;-1
2021/07/04 08:35:40;;;;;;;24.85;13.13;;;;;;;22.06;55.60;99578.06;5032577;28;20052;0
2021/07/04 08:38:07;;;;;;;2.53;1.80;;;;;;;22.20;53.88;99587.91;5032531;28;20071;0
2021/07/04 08:40:33;;;;;;;7.95;2.92;;;;;;;22.13;54.30;99568.75;5032676;28;20524;-1
2021/07/04 08:42:59;;;;;;;12.10;5.88;;;;;;;22.04;54.62;99595.91;5031931;28;20046;0
2021/07/04 08:45:26;;;;;;;4.38;2.60;;;;;;;22.16;55.31;99567.72;5030307;28;20111;0
2021/07/04 08:47:52;;;;;;;3.80;1.70;;;;;;;22.23;54.14;99589.53;5032980;28;20477;-1
2021/07/04 08:50:19;;;;;;;4.95;2.63;;;;;;;22.24;54.80;99593.88;5032299;28;20048;-1
2021/07/04 08:52:45;;;;;;;4.85;2.40;;;;;;;22.26;54.56;99592.84;5032516;28;20389;0
2021/07/04 08:55:12;;;;;;;3.80;2.03;;;;;;;22.35;54.96;99586.13;5032622;28;20520;0
2021/07/04 08:57:38;;;;;;;3.08;1.85;;;;;;;22.10;55.41;99587.56;5031175;28;20462;-1
2021/07/04 09:00:07;;;;;;;2.72;1.98;;;;;;;22.01;55.26;99560.66;5032472;28;20038;-1
2021/07/04 09:02:37;;;;;;;17.92;3.47;;;;;;;22.12;55.83;99537.78;5031209;28;20045;-1
2021/07/04 09:05:06;;;;;;;11.13;2.78;;;;;;;22.57;55.07;99577.72;5031708;28;20136;0
2021/07/04 09:07:33;;;;;;;3.60;1.90;;;;;;;22.65;54.35;99576.41;5031381;28;20400;-1
2021/07/04 09:10:08;;;;;;;11.55;2.88;;;;;;;22.54;55.28;99579.72;5029987;28;20091;0
2021/07/04 09:12:44;;;;;;;4.43;2.22;;;;;;;22.28;54.81;99579.44;5031898;28;20128;-1
2021/07/04 09:15:16;;;;;;;12.05;2.70;;;;;;;22.75;55.23;99583.75;5029842;28;20512;0
2021/07/04 09:17:49;;;;;;;3.60;2.00;;;;;;;22.67;54.11;99574.50;5032262;28;20072;0
2021/07/04 09:20:29;;;;;;;4.00;2.38;;;;;;;22.75;54.10;99583.75;5031629;28;20046;-1
2021/07/04 09:22:56;;;;;;;5.70;2.33;;;;;;;22.75;54.77;99588.19;5032172;28;20080;-1
2021/07/04 09:25:27;;;;;;;19.75;3.17;;;;;;;22.78;53.96;99583.53;5031885;28;20041;0
2021/07/04 09:28:10;;;;;;;14.00;2.47;;;;;;;22.71;55.24;99579.56;5032086;28;20405;0
2021/07/04 09:30:42;;;;;;;11.20;3.30;;;;;;;22.75;54.68;99583.75;5031625;28;20045;0
2021/07/04 09:33:17;;;;;;;18.42;3.50;;;;;;;22.84;54.32;99577.00;5030335;28;20049;-1
2021/07/04 09:35:55;;;;;;;4.40;2.13;;;;;;;22.56;54.42;99564.50;5029155;28;20168;-4
2021/07/04 09:38:22;;;;;;;3.75;2.38;;;;;;;22.77;54.78;99562.31;5030952;28;20049;-4
2021/07/04 09:40:49;;;;;;;14.48;3.17;;;;;;;23.20;53.53;99580.97;5033648;28;20452;-5
2021/07/04 09:43:18;;;;;;;10.25;2.65;;;;;;;23.46;53.64;99581.13;5034332;28;20038;-4
2021/07/04 09:45:45;;;;;;;3.60;2.50;;;;;;;23.53;52.63;99571.78;5034199;28;20076;-5
2021/07/04 09:48:16;;;;;;;18.98;2.85;;;;;;;23.67;53.13;99564.69;5035032;28;20049;-4
2021/07/04 09:50:51;;;;;;;22.90;3.67;;;;;;;23.90;52.65;99569.38;5035275;28;20088;-4
2021/07/04 09:53:19;;;;;;;19.15;3.40;;;;;;;23.79;52.83;99572.75;5035141;28;20041;-3
2021/07/04 09:55:50;;;;;;;8.20;2.30;;;;;;;23.58;52.95;99569.69;5035214;28;20412;-3
2021/07/04 09:58:17;;;;;;;;;;;;;;;23.62;53.16;99573.84;5035596;28;20048;-4
2021/07/04 10:00:46;;;;;;;19.60;3.42;;;;;;;23.73;52.20;99580.31;5034662;28;20012;-4
2021/07/04 10:03:21;;;;;;;17.65;2.92;;;;;;;23.40;52.46;99574.38;5034850;28;20045;-4
2021/07/04 10:05:54;;;;;;;20.00;3.83;;;;;;;23.40;53.74;99568.19;5034694;28;20716;-4
2021/07/04 10:08:33;;;;;;;5.13;2.15;;;;;;;23.20;53.16;99578.31;5034677;28;20045;-4
2021/07/04 10:11:12;;;;;;;12.85;3.20;;;;;;;22.95;54.16;99573.66;5034055;28;20087;-4
2021/07/04 10:13:41;;;;;;;12.10;2.90;;;;;;;23.42;54.04;99575.13;5030733;28;20045;-4
2021/07/04 10:16:10;;;;;;;3.50;1.90;;;;;;;23.34;52.91;99556.09;5032817;28;20476;-4
2021/07/04 10:18:38;;;;;;;14.30;3.13;;;;;;;23.48;53.76;99575.69;5034600;28;20049;-4
2021/07/04 10:21:06;;;;;;;15.45;4.20;;;;;;;23.62;52.81;99536.50;5045451;28;20052;-5
2021/07/04 10:23:33;;;;;;;7.80;4.10;;;;;;;23.78;52.27;99573.69;5038756;28;20083;-5
2021/07/04 10:26:00;;;;;;;15.30;3.30;;;;;;;23.38;53.42;99578.94;5032868;28;20045;-5
2021/07/04 10:28:32;;;;;;;18.33;3.13;;;;;;;23.48;54.19;99575.69;5034663;28;20417;-5
2021/07/04 10:31:07;;;;;;;3.90;2.58;;;;;;;23.26;53.81;99550.41;5032882;28;20041;-5
2021/07/04 10:33:34;;;;;;;17.50;3.22;;;;;;;23.76;53.48;99575.59;5037782;28;20041;-4
2021/07/04 10:36:10;;;;;;;12.77;3.05;;;;;;;23.80;53.48;99576.25;5043334;28;20045;-5
2021/07/04 10:38:47;;;;;;;5.13;2.42;;;;;;;23.84;53.20;99582.25;5033637;28;20464;-5
2021/07/04 10:41:19;;;;;;;9.02;2.72;;;;;;;23.47;54.27;99588.19;5034203;28;20037;-5
2021/07/04 10:43:54;;;;;;;3.47;2.30;;;;;;;23.25;54.21;99581.53;5034332;28;20047;-4
2021/07/04 10:46:49;;;;;;;3.10;2.28;;;;;;;23.05;55.06;99582.78;5034241;28;20041;-5
2021/07/04 10:49:16;;;;;;;11.65;3.13;;;;;;;23.23;54.96;99593.25;5033768;28;20064;-5
2021/07/04 10:52:01;;;;;;;7.32;2.28;;;;;;;23.58;54.80;99588.34;5034198;28;20049;-5
2021/07/04 10:54:46;;;;;;;7.20;2.38;;;;;;;23.42;54.40;99585.78;5033787;28;20430;-4
2021/07/04 10:57:15;;;;;;;3.83;2.40;;;;;;;22.99;55.50;99583.16;5034042;28;20069;-5
2021/07/04 10:59:56;;;;;;;3.47;2.65;;;;;;;23.23;55.19;99591.47;5033987;28;20527;-5
2021/07/04 11:02:43;;;;;;;5.10;3.33;;;;;;;23.40;54.87;99594.84;5034318;28;20487;-5
2021/07/04 11:05:37;;;;;;;12.52;2.75;;;;;;;23.46;56.56;99592.66;5032728;28;20037;-5
2021/07/04 11:08:11;;;;;;;15.15;3.35;;;;;;;23.90;55.20;99595.22;5031311;28;20053;-6
2021/07/04 11:10:49;;;;;;;6.95;2.72;;;;;;;23.49;54.84;99588.91;5033520;28;20038;-6
2021/07/04 11:13:16;;;;;;;15.25;2.88;;;;;;;23.52;54.84;99585.19;5033631;28;20128;-4
2021/07/04 11:15:50;;;;;;;9.13;2.65;;;;;;;23.73;55.65;99591.81;5033832;28;20052;-4
2021/07/04 11:18:20;;;;;;;3.22;2.50;;;;;;;23.62;54.13;99588.97;5033343;28;20053;-5
2021/07/04 11:20:50;;;;;;;6.55;2.70;;;;;;;23.70;53.99;99580.47;5033324;28;20457;-5
2021/07/04 11:23:19;;;;;;;7.78;3.45;;;;;;;23.57;54.43;99583.97;5033612;28;20471;-4
2021/07/04 11:25:53;;;;;;;9.15;2.63;;;;;;;23.86;55.56;99588.34;5033649;28;20041;-5
2021/07/04 11:28:19;;;;;;;5.38;2.50;;;;;;;23.99;53.83;99586.59;5033975;28;20041;-5
2021/07/04 11:31:17;;;;;;;7.80;2.92;;;;;;;23.71;54.37;99576.88;5032778;28;20507;-4
2021/07/04 11:33:44;;;;;;;5.88;3.35;;;;;;;23.90;54.85;99574.72;5033348;28;20103;-5
2021/07/04 11:36:17;;;;;;;11.40;2.95;;;;;;;23.99;55.67;99583.06;5033029;28;20052;-5
2021/07/04 11:38:58;;;;;;;21.42;3.22;;;;;;;24.19;54.90;99560.38;5027922;28;20042;-6
2021/07/04 11:41:26;;;;;;;7.35;3.28;;;;;;;23.95;54.69;99521.88;5013398;28;20041;-6
2021/07/04 11:43:56;;;;;;;6.90;2.85;;;;;;;24.52;53.32;99585.72;5034535;28;20098;-4
2021/07/04 11:46:24;;;;;;;6.75;3.13;;;;;;;24.49;53.73;99576.09;5026609;28;20489;-5
2021/07/04 11:49:07;;;;;;;11.90;2.65;;;;;;;24.64;53.43;99578.72;5033051;28;20141;-6
2021/07/04 11:51:41;;;;;;;6.32;2.70;;;;;;;24.17;54.34;99589.84;5014069;28;20042;-6
2021/07/04 11:54:25;;;;;;;9.30;3.00;;;;;;;24.15;55.43;99578.41;5015969;28;20268;-5
2021/07/04 12:00:00;;;;;;;6.55;3.45;;;;;;;23.84;55.58;99574.25;5035172;28;20390;-6